Time;durP1;ratioP1;P1;durP2;ratioP2;P2;SDS_P1;SDS_P2;PMS_P1;PMS_P2;Temp;Humidity;BMP_temperature;BMP_pressure;BME280_temperature;BME280_humidity;BME280_pressure;Samples;Min_cycle;Max_cycle;Signal;HPM_P1;HPM_P2
2021/04/01 00:01:53;;;;;;;11.27;5.70;;;;;;;11.14;69.31;98503.41;5095358;28;20259;-73
2021/04/01 00:04:19;;;;;;;6.53;4.87;;;;;;;11.23;68.83;98495.72;5097119;28;20219;-73
2021/04/01 00:06:45;;;;;;;8.67;5.60;;;;;;;11.18;69.15;98494.34;5096876;28;20677;-73
2021/04/01 00:09:12;;;;;;;7.13;5.10;;;;;;;11.11;69.18;98493.03;5097228;28;20231;-72
2021/04/01 00:11:38;;;;;;;8.33;5.30;;;;;;;11.06;69.77;98489.84;5096810;28;20263;-74
2021/04/01 00:14:05;;;;;;;6.33;5.03;;;;;;;10.98;70.70;98502.72;5096867;28;20233;-73
2021/04/01 00:16:33;;;;;;;8.73;5.57;;;;;;;10.93;70.50;98491.56;5097137;28;20248;-71
2021/04/01 00:18:59;;;;;;;7.47;4.63;;;;;;;10.95;70.30;98489.69;5096956;28;20203;-71
2021/04/01 00:21:25;;;;;;;8.87;5.43;;;;;;;10.98;70.16;98486.84;5096798;28;20202;-72
2021/04/01 00:23:51;;;;;;;8.70;5.23;;;;;;;10.97;70.18;98486.00;5096797;28;20585;-81
2021/04/01 00:26:18;;;;;;;6.00;4.77;;;;;;;10.94;69.78;98480.91;5096779;28;20305;-80
2021/04/01 00:28:44;;;;;;;7.37;5.27;;;;;;;10.91;69.91;98480.25;5095248;28;20234;-81
2021/04/01 00:31:10;;;;;;;7.27;5.27;;;;;;;10.86;70.06;98482.34;5096743;28;20569;-80
2021/04/01 00:33:36;;;;;;;8.67;5.40;;;;;;;10.84;70.25;98481.59;5096964;28;20213;-80
2021/04/01 00:36:02;;;;;;;7.13;5.33;;;;;;;10.80;70.52;98483.59;5096655;28;20248;-79
2021/04/01 00:38:28;;;;;;;7.83;5.40;;;;;;;10.80;70.21;98480.09;5096381;28;20691;-79
2021/04/01 00:40:54;;;;;;;7.57;5.27;;;;;;;10.80;70.57;98480.09;5096759;28;20298;-72
2021/04/01 00:43:21;;;;;;;7.30;5.53;;;;;;;10.74;70.72;98481.34;5096746;28;20207;-71
2021/04/01 00:45:47;;;;;;;7.70;5.27;;;;;;;10.70;71.09;98481.66;5096627;28;20207;-74
2021/04/01 00:48:13;;;;;;;10.13;5.70;;;;;;;10.67;71.86;98480.06;5096434;28;20234;-75
2021/04/01 00:50:39;;;;;;;7.40;5.37;;;;;;;10.67;72.28;98476.53;5096337;28;20218;-79
2021/04/01 00:53:05;;;;;;;7.53;5.10;;;;;;;10.56;72.62;98479.03;5096535;28;20266;-76
2021/04/01 00:55:32;;;;;;;5.97;5.00;;;;;;;10.48;72.89;98468.09;5094607;28;20265;-75
2021/04/01 00:58:01;;;;;;;7.13;5.07;;;;;;;10.43;72.32;98470.19;5095999;28;20677;-71
2021/04/01 01:00:30;;;;;;;8.43;5.60;;;;;;;10.38;72.34;98469.59;5096303;28;20223;-70
2021/04/01 01:02:56;;;;;;;7.73;5.57;;;;;;;10.28;72.87;98471.97;5096245;28;20681;-71
2021/04/01 01:05:24;;;;;;;12.30;6.67;;;;;;;10.23;73.24;98474.09;5096068;28;20279;-72
2021/04/01 01:07:50;;;;;;;9.97;6.33;;;;;;;10.16;73.75;98469.28;5096153;28;20235;-76
2021/04/01 01:10:18;;;;;;;8.17;6.67;;;;;;;10.10;74.62;98465.19;5096007;28;20208;-77
2021/04/01 01:12:44;;;;;;;8.13;6.23;;;;;;;10.06;74.71;98463.72;5095941;28;20295;-75
2021/04/01 01:15:12;;;;;;;10.00;6.70;;;;;;;9.99;74.84;98464.16;5096100;28;20572;-74
2021/04/01 01:17:39;;;;;;;9.67;6.90;;;;;;;9.95;75.23;98465.28;5096061;28;20265;-76
2021/04/01 01:20:09;;;;;;;9.73;6.90;;;;;;;9.94;75.48;98456.53;5094240;28;20264;-74
2021/04/01 01:22:37;;;;;;;8.33;6.23;;;;;;;9.91;75.42;98459.34;5095824;28;20570;-74
2021/04/01 01:25:08;;;;;;;12.13;7.03;;;;;;;9.85;76.46;98458.88;5095521;28;20213;-74
2021/04/01 01:27:34;;;;;;;12.30;7.10;;;;;;;9.77;76.63;98458.47;5095650;28;20280;-74
2021/04/01 01:30:00;;;;;;;11.50;7.17;;;;;;;9.65;77.59;98456.56;5095704;28;20223;-74
2021/04/01 01:32:35;;;;;;;9.13;6.97;;;;;;;9.55;78.01;98451.00;5095416;28;20665;-74
2021/04/01 01:35:01;;;;;;;10.30;7.53;;;;;;;9.45;78.48;98438.47;5095431;28;20291;-75
2021/04/01 01:37:27;;;;;;;10.53;7.80;;;;;;;9.45;78.41;98449.00;5095303;28;20222;-73
2021/04/01 01:39:53;;;;;;;11.33;7.50;;;;;;;9.42;78.71;98441.28;5095302;28;20668;-75
2021/04/01 01:42:20;;;;;;;10.57;7.63;;;;;;;9.39;78.92;98444.09;5095173;28;20305;-77
2021/04/01 01:44:46;;;;;;;11.23;8.10;;;;;;;9.30;79.92;98434.13;5095337;28;20211;-75
2021/04/01 01:47:12;;;;;;;10.63;8.10;;;;;;;9.21;80.61;98450.47;5093262;28;20672;-78
2021/04/01 01:49:41;;;;;;;12.70;8.40;;;;;;;9.11;81.03;98442.25;5095273;28;20297;-76
2021/04/01 01:52:08;;;;;;;12.63;7.90;;;;;;;9.11;81.05;98441.41;5095351;28;20219;-77
2021/04/01 01:54:34;;;;;;;9.87;7.60;;;;;;;9.10;80.68;98432.63;5095202;28;20575;-75
2021/04/01 01:57:00;;;;;;;9.40;6.50;;;;;;;9.11;79.85;98438.78;5094872;28;20670;-76
2021/04/01 01:59:29;;;;;;;11.83;7.30;;;;;;;9.07;80.03;98426.69;5094826;28;20216;-77
2021/04/01 02:01:55;;;;;;;10.07;6.53;;;;;;;9.07;80.57;98424.06;5095037;28;20532;-76
2021/04/01 02:04:21;;;;;;;10.00;7.17;;;;;;;9.12;80.64;98424.66;5095032;28;20637;-76
2021/04/01 02:06:47;;;;;;;10.57;7.40;;;;;;;9.20;80.19;98422.41;5094653;28;20229;-77
2021/04/01 02:09:13;;;;;;;9.77;6.50;;;;;;;9.31;79.64;98417.34;5095149;28;20593;-76
2021/04/01 02:11:39;;;;;;;12.03;6.90;;;;;;;9.35;79.97;98418.84;5094768;28;20289;-75
2021/04/01 02:14:05;;;;;;;10.27;7.10;;;;;;;9.35;80.12;98424.97;5093454;28;20280;-76
2021/04/01 02:16:31;;;;;;;11.53;7.27;;;;;;;9.36;79.47;98420.56;5094630;28;20615;-75
2021/04/01 02:18:57;;;;;;;8.40;5.90;;;;;;;9.36;78.80;98417.91;5094681;28;20211;-75
2021/04/01 02:21:24;;;;;;;10.83;6.73;;;;;;;9.31;78.61;98414.69;5094286;28;20242;-74
2021/04/01 02:23:50;;;;;;;8.77;6.30;;;;;;;9.31;79.01;98412.06;5094400;28;20211;-75
2021/04/01 02:26:16;;;;;;;11.67;7.57;;;;;;;9.28;79.43;98409.59;5094537;28;20298;-74
2021/04/01 02:28:42;;;;;;;12.83;6.97;;;;;;;9.29;79.98;98411.28;5094346;28;20238;-75
2021/04/01 02:31:10;;;;;;;9.43;6.70;;;;;;;9.29;80.27;98411.28;5094186;28;20676;-75
2021/04/01 02:33:39;;;;;;;8.60;6.60;;;;;;;9.32;79.62;98414.63;5094458;28;20211;-75
2021/04/01 02:36:06;;;;;;;9.97;7.13;;;;;;;9.33;79.74;98410.19;5094182;28;20691;-75
2021/04/01 02:38:33;;;;;;;11.47;6.67;;;;;;;9.33;79.47;98410.19;5092609;28;20600;-75
2021/04/01 02:40:59;;;;;;;12.37;6.90;;;;;;;9.32;79.22;98408.47;5094441;28;20207;-75
2021/04/01 02:43:32;;;;;;;7.70;6.67;;;;;;;9.28;79.44;98410.47;5094377;28;20211;-75
2021/04/01 02:45:58;;;;;;;10.27;6.60;;;;;;;9.22;79.82;98400.28;5094002;28;20210;-75
2021/04/01 02:48:24;;;;;;;10.87;6.60;;;;;;;9.18;80.27;98404.03;5094456;28;20241;-75
2021/04/01 02:50:51;;;;;;;11.20;6.77;;;;;;;9.16;81.02;98397.13;5094195;28;20213;-75
2021/04/01 02:53:17;;;;;;;9.17;6.57;;;;;;;9.13;81.14;98402.59;5094046;28;20260;-75
2021/04/01 02:55:44;;;;;;;10.47;6.97;;;;;;;9.13;81.56;98407.88;5094155;28;20206;-75
2021/04/01 02:58:10;;;;;;;9.53;6.70;;;;;;;9.15;81.59;98395.44;5094117;28;20222;-74
2021/04/01 03:00:37;;;;;;;7.97;6.23;;;;;;;9.18;81.58;98403.19;5094074;28;20234;-75
2021/04/01 03:03:06;;;;;;;9.23;6.50;;;;;;;9.17;81.71;98406.78;5093888;28;20221;-76
2021/04/01 03:05:32;;;;;;;7.83;6.57;;;;;;;9.14;81.94;98401.66;5091909;28;20211;-74
2021/04/01 03:07:59;;;;;;;11.03;6.53;;;;;;;9.17;81.77;98398.88;5093453;28;20237;-74
2021/04/01 03:10:25;;;;;;;8.70;6.67;;;;;;;9.18;81.33;98403.19;5094151;28;20210;-74
2021/04/01 03:12:51;;;;;;;9.90;6.57;;;;;;;9.21;81.26;98397.72;5093627;28;20594;-74
2021/04/01 03:15:18;;;;;;;10.93;6.33;;;;;;;9.19;81.15;98399.59;5093550;28;20217;-74
2021/04/01 03:17:44;;;;;;;8.17;6.30;;;;;;;9.22;81.29;98404.69;5093458;28;20223;-75
2021/04/01 03:20:12;;;;;;;9.80;6.37;;;;;;;9.21;81.03;98397.72;5093729;28;20320;-72
2021/04/01 03:22:39;;;;;;;8.97;6.57;;;;;;;9.20;80.95;98406.56;5093737;28;20211;-71
2021/04/01 03:25:09;;;;;;;9.77;6.33;;;;;;;9.13;81.46;98399.97;5093316;28;20214;-71
2021/04/01 03:27:35;;;;;;;9.03;6.63;;;;;;;9.08;81.62;98394.13;5093586;28;20211;-72
2021/04/01 03:30:05;;;;;;;9.77;6.37;;;;;;;9.04;81.94;98403.13;5091890;28;20237;-72
2021/04/01 03:32:31;;;;;;;9.73;6.90;;;;;;;9.02;82.34;98407.66;5092331;28;20218;-72
2021/04/01 03:34:57;;;;;;;10.03;6.40;;;;;;;8.99;82.70;98407.84;5093694;28;20250;-76
2021/04/01 03:37:24;;;;;;;9.47;6.10;;;;;;;8.96;82.86;98402.75;5093548;28;20210;-76
2021/04/01 03:39:50;;;;;;;9.17;6.50;;;;;;;8.94;83.58;98404.63;5093487;28;20620;-75
2021/04/01 03:42:17;;;;;;;8.17;6.60;;;;;;;8.90;83.14;98403.09;5093195;28;20210;-75
2021/04/01 03:44:43;;;;;;;7.40;6.07;;;;;;;8.89;83.71;98404.03;5093399;28;20583;-75
2021/04/01 03:47:09;;;;;;;9.63;6.30;;;;;;;8.87;83.84;98405.94;5093347;28;20203;-75
2021/04/01 03:49:35;;;;;;;8.30;5.80;;;;;;;8.82;84.61;98413.25;5092971;28;20712;-75
2021/04/01 03:52:01;;;;;;;10.70;6.40;;;;;;;8.84;84.43;98406.09;5093336;28;20210;-74
2021/04/01 03:54:27;;;;;;;8.10;5.67;;;;;;;8.83;84.10;98404.41;5093326;28;20207;-74
2021/04/01 03:56:53;;;;;;;9.23;5.70;;;;;;;8.80;84.53;98409.81;5091559;28;20705;-74
2021/04/01 03:59:22;;;;;;;10.57;6.33;;;;;;;8.79;84.64;98406.38;5093081;28;20242;-74
2021/04/01 04:02:08;;;;;;;8.30;5.70;;;;;;;8.79;84.52;98403.72;5092948;28;20260;-74
2021/04/01 04:04:44;;;;;;;7.70;6.03;;;;;;;8.80;84.66;98413.31;5092900;28;20206;-74
2021/04/01 04:07:29;;;;;;;9.40;6.70;;;;;;;8.73;85.88;98421.66;5093006;28;20210;-74
2021/04/01 04:10:04;;;;;;;12.47;6.87;;;;;;;8.58;87.08;98419.91;5093036;28;20218;-74
2021/04/01 04:12:41;;;;;;;10.17;6.40;;;;;;;8.50;87.25;98408.97;5092995;28;20219;-74
2021/04/01 04:15:11;;;;;;;9.13;7.27;;;;;;;8.44;87.57;98417.22;5093129;28;20245;-74
2021/04/01 04:17:37;;;;;;;10.97;6.57;;;;;;;8.46;87.73;98415.34;5093022;28;20301;-74
2021/04/01 04:20:05;;;;;;;8.67;6.40;;;;;;;8.47;87.26;98414.41;5092862;28;20203;-75
2021/04/01 04:22:31;;;;;;;9.33;6.80;;;;;;;8.43;87.21;98416.34;5091288;28;20241;-74
2021/04/01 04:24:57;;;;;;;10.80;8.17;;;;;;;8.32;88.04;98420.53;5093049;28;20219;-70
2021/04/01 04:30:05;;;;;;;10.83;7.03;;;;;;;8.18;88.81;98412.50;5092468;28;20210;-70
2021/04/01 04:32:34;;;;;;;9.67;7.00;;;;;;;8.10;89.02;98414.72;5092973;28;20245;-72
2021/04/01 04:35:00;;;;;;;11.23;6.23;;;;;;;8.07;89.00;98413.09;5092675;28;20242;-71
2021/04/01 04:37:27;;;;;;;11.30;7.07;;;;;;;8.04;89.37;98415.03;5093093;28;20242;-71
2021/04/01 04:39:53;;;;;;;12.03;6.73;;;;;;;8.00;90.00;98414.38;5092627;28;20202;-71
2021/04/01 04:42:19;;;;;;;10.53;6.50;;;;;;;8.02;89.88;98422.19;5092718;28;20203;-72
2021/04/01 04:44:45;;;;;;;9.90;6.10;;;;;;;7.99;89.95;98425.84;5094733;28;20615;-71
2021/04/01 04:47:11;;;;;;;8.67;6.13;;;;;;;8.01;90.38;98431.00;5096275;28;20207;-71
2021/04/01 04:49:38;;;;;;;7.13;6.23;;;;;;;8.01;90.34;98425.72;5094550;28;20237;-71
2021/04/01 04:52:05;;;;;;;10.70;6.50;;;;;;;8.05;90.20;98428.13;5096498;28;20207;-71
2021/04/01 04:54:32;;;;;;;9.83;6.37;;;;;;;8.09;90.23;98429.66;5096098;28;20207;-71
2021/04/01 04:57:00;;;;;;;11.20;6.33;;;;;;;8.12;89.44;98423.38;5096038;28;20314;-71
2021/04/01 04:59:29;;;;;;;9.10;6.63;;;;;;;8.15;90.08;98428.47;5096375;28;20206;-71
2021/04/01 05:04:46;;;;;;;9.20;6.70;;;;;;;8.19;88.78;98430.00;5083936;28;20264;-71
2021/04/01 05:07:12;;;;;;;9.97;6.37;;;;;;;8.23;89.33;98427.16;5096432;28;20279;-71
2021/04/01 05:09:39;;;;;;;9.80;6.77;;;;;;;8.26;89.03;98441.94;5096204;28;20238;-69
2021/04/01 05:12:06;;;;;;;11.47;7.07;;;;;;;8.35;88.51;98446.69;5096422;28;20210;-69
2021/04/01 05:14:32;;;;;;;9.80;6.93;;;;;;;8.34;89.11;98439.72;5094308;28;20288;-69
2021/04/01 05:16:58;;;;;;;10.60;6.63;;;;;;;8.30;89.11;98439.03;5096259;28;20219;-69
2021/04/01 05:19:25;;;;;;;9.87;6.47;;;;;;;8.27;90.41;98438.38;5095698;28;20253;-68
2021/04/01 05:21:55;;;;;;;10.33;6.60;;;;;;;8.29;90.51;98441.75;5096003;28;20221;-70
2021/04/01 05:24:24;;;;;;;9.63;6.80;;;;;;;8.34;90.59;98442.34;5095843;28;20246;-71
2021/04/01 05:29:37;;;;;;;10.33;6.87;;;;;;;8.39;89.77;98442.97;5095572;28;20611;-71
2021/04/01 05:32:05;;;;;;;9.57;6.50;;;;;;;8.48;89.09;98448.56;5095449;28;20203;-71
2021/04/01 05:34:31;;;;;;;9.10;6.40;;;;;;;8.61;89.10;98449.56;5095770;28;20304;-71
2021/04/01 05:36:59;;;;;;;8.07;6.17;;;;;;;8.73;88.29;98448.00;5095687;28;20219;-71
2021/04/01 05:39:28;;;;;;;9.27;6.53;;;;;;;8.85;88.00;98447.31;5095420;28;20207;-75
2021/04/01 05:41:55;;;;;;;9.57;6.27;;;;;;;8.96;88.29;98455.47;5094133;28;20214;-73
2021/04/01 05:44:24;;;;;;;8.70;6.90;;;;;;;9.10;89.14;98452.88;5095331;28;20640;-73
2021/04/01 05:46:56;;;;;;;9.03;6.00;;;;;;;9.27;87.94;98452.75;5095502;28;20301;-73
2021/04/01 05:49:42;;;;;;;8.50;6.60;;;;;;;9.33;88.44;98444.47;5095368;28;20231;-73
2021/04/01 05:58:12;;;;;;;10.77;6.80;;;;;;;9.74;87.45;98451.59;5094584;28;20285;-73
2021/04/01 06:00:52;;;;;;;9.97;6.90;;;;;;;9.95;85.72;98455.56;5095283;28;20207;-72
2021/04/01 06:03:36;;;;;;;10.73;7.57;;;;;;;10.11;84.33;98455.50;5095166;28;20215;-74
2021/04/01 06:06:06;;;;;;;10.47;6.53;;;;;;;10.19;82.60;98464.66;5094748;28;20280;-74
2021/04/01 06:08:38;;;;;;;8.30;6.20;;;;;;;10.30;81.30;98461.34;5093380;28;20284;-74
2021/04/01 06:11:05;;;;;;;9.87;6.40;;;;;;;10.47;79.95;98461.94;5094671;28;20211;-72
2021/04/01 06:13:37;;;;;;;9.87;7.23;;;;;;;10.63;79.43;98460.03;5094728;28;20322;-72
2021/04/01 06:16:04;;;;;;;11.13;6.93;;;;;;;10.81;78.52;98461.50;5095051;28;20666;-72
2021/04/01 06:18:33;;;;;;;9.60;6.40;;;;;;;11.01;77.90;98461.03;5094639;28;20209;-73
2021/04/01 06:21:10;;;;;;;10.13;6.70;;;;;;;11.21;77.98;98457.09;5094484;28;20580;-72
2021/04/01 06:23:40;;;;;;;10.10;7.07;;;;;;;11.41;77.72;98448.66;5094463;28;20218;-75
2021/04/01 06:26:14;;;;;;;9.50;7.20;;;;;;;11.53;77.04;98453.09;5094704;28;20203;-72
2021/04/01 06:28:45;;;;;;;8.47;6.90;;;;;;;11.59;76.01;98453.59;5094687;28;20279;-73
2021/04/01 06:31:13;;;;;;;10.57;6.67;;;;;;;11.63;75.79;98449.75;5094571;28;20252;-73
2021/04/01 06:33:48;;;;;;;12.43;7.27;;;;;;;11.72;75.79;98449.16;5092880;28;20209;-74
2021/04/01 06:36:18;;;;;;;10.23;7.00;;;;;;;11.91;74.90;98454.88;5094123;28;20783;-74
2021/04/01 06:38:44;;;;;;;11.83;7.40;;;;;;;11.98;74.50;98445.53;5093999;28;20203;-73
2021/04/01 06:41:20;;;;;;;9.63;6.70;;;;;;;11.92;74.50;98455.72;5094283;28;20620;-73
2021/04/01 06:43:58;;;;;;;10.03;6.97;;;;;;;11.79;75.48;98449.59;5093858;28;20676;-73
2021/04/01 06:46:26;;;;;;;11.40;6.60;;;;;;;11.68;75.56;98452.13;5094112;28;20212;-73
2021/04/01 06:51:58;;;;;;;9.20;6.87;;;;;;;11.42;77.53;98451.19;5091834;28;20212;-74
2021/04/01 06:54:31;;;;;;;11.43;7.03;;;;;;;11.37;77.93;98449.81;5094013;28;20596;-72
2021/04/01 06:57:17;;;;;;;11.70;6.97;;;;;;;11.37;77.33;98445.38;5093863;28;20214;-71
2021/04/01 06:59:59;;;;;;;9.60;6.37;;;;;;;11.46;76.36;98446.53;5092361;28;20240;-72
2021/04/01 07:02:33;;;;;;;9.30;6.63;;;;;;;11.61;76.47;98443.72;5093754;28;20220;-71
2021/04/01 07:05:15;;;;;;;12.27;7.97;;;;;;;11.83;75.36;98440.47;5090785;28;20847;-71
2021/04/01 07:07:44;;;;;;;9.93;6.80;;;;;;;12.02;74.09;98438.22;5092878;28;20206;-71
2021/04/01 07:10:19;;;;;;;11.03;7.13;;;;;;;12.23;72.95;98444.66;5092664;28;20329;-71
2021/04/01 07:12:48;;;;;;;9.97;6.60;;;;;;;12.41;73.06;98436.25;5091787;28;20217;-72
2021/04/01 07:15:19;;;;;;;13.77;7.40;;;;;;;12.50;72.29;98430.28;5091610;28;20214;-72
2021/04/01 07:17:50;;;;;;;8.97;6.70;;;;;;;12.71;71.18;98435.84;5093456;28;20339;-72
2021/04/01 07:20:32;;;;;;;10.13;7.17;;;;;;;12.87;70.19;98439.06;5093460;28;20210;-72
2021/04/01 07:23:48;;;;;;;12.40;7.63;;;;;;;13.03;69.39;98439.66;5093700;28;20635;-71
2021/04/01 07:34:58;;;;;;;11.93;7.13;;;;;;;13.99;66.08;98458.78;5093197;28;20208;-72
2021/04/01 07:48:56;;;;;;;12.57;7.43;;;;;;;15.32;62.18;98436.31;5030611;28;20247;-72
2021/04/01 07:51:33;;;;;;;10.63;7.60;;;;;;;15.24;59.92;98439.63;5028975;28;20209;-71
2021/04/01 07:54:00;;;;;;;10.17;6.90;;;;;;;15.29;59.63;98437.44;5065964;28;20691;-72
2021/04/01 07:56:30;;;;;;;19.37;7.57;;;;;;;15.72;59.18;98429.38;5093266;28;20209;-73
2021/04/01 07:59:13;;;;;;;11.53;6.77;;;;;;;15.75;58.18;98429.09;5092983;28;20203;-72
2021/04/01 08:01:54;;;;;;;9.70;7.03;;;;;;;15.80;58.33;98432.22;5093287;28;20229;-71
2021/04/01 08:04:20;;;;;;;10.23;6.50;;;;;;;15.84;59.07;98430.97;5093189;28;20632;-71
2021/04/01 08:06:46;;;;;;;9.20;6.60;;;;;;;15.76;60.12;98441.47;5092825;28;20676;-70
2021/04/01 08:09:18;;;;;;;10.07;6.63;;;;;;;15.83;60.31;98426.63;5092807;28;20708;-70
2021/04/01 08:11:47;;;;;;;10.90;6.77;;;;;;;15.83;57.41;98437.28;5093069;28;20210;-71
2021/04/01 08:14:16;;;;;;;9.73;6.90;;;;;;;15.92;60.06;98431.16;5092686;28;20700;-71
2021/04/01 08:16:50;;;;;;;11.27;6.80;;;;;;;16.20;57.27;98426.81;5092063;28;20259;-70
2021/04/01 08:19:20;;;;;;;12.23;6.90;;;;;;;16.42;58.11;98425.81;5093930;28;20238;-70
2021/04/01 08:21:48;;;;;;;8.90;6.73;;;;;;;16.66;57.36;98424.50;5098538;28;20293;-70
2021/04/01 08:24:18;;;;;;;12.27;6.77;;;;;;;16.93;57.61;98414.00;5098703;28;20218;-71
2021/04/01 08:26:57;;;;;;;9.20;7.00;;;;;;;17.26;55.22;98420.78;5099194;28;20206;-70
2021/04/01 08:32:46;;;;;;;8.80;6.17;;;;;;;17.96;52.31;98426.63;5096567;28;20260;-70
2021/04/01 08:35:14;;;;;;;10.70;6.13;;;;;;;18.37;51.15;98435.16;5096539;28;20206;-71
2021/04/01 08:37:48;;;;;;;11.83;7.07;;;;;;;18.60;50.70;98436.44;5096777;28;20214;-71
2021/04/01 08:40:14;;;;;;;8.70;6.90;;;;;;;18.68;51.30;98433.88;5096646;28;20213;-70
2021/04/01 08:43:08;;;;;;;11.07;6.30;;;;;;;18.72;50.05;98427.19;5095831;28;20205;-71
2021/04/01 08:45:58;;;;;;;9.97;7.20;;;;;;;18.75;49.63;98428.75;5096749;28;20251;-71
2021/04/01 08:48:37;;;;;;;8.87;6.60;;;;;;;18.89;51.00;98423.72;5096437;28;20284;-71
2021/04/01 08:51:34;;;;;;;11.87;6.27;;;;;;;19.12;51.47;98418.78;5096487;28;20212;-71
2021/04/01 08:54:05;;;;;;;7.80;6.37;;;;;;;19.23;49.84;98435.53;5096369;28;20207;-71
2021/04/01 08:56:37;;;;;;;6.90;5.87;;;;;;;19.28;49.33;98425.19;5096515;28;20239;-71
2021/04/01 08:59:16;;;;;;;8.93;6.57;;;;;;;19.40;48.61;98418.59;5096478;28;20581;-70
2021/04/01 09:01:43;;;;;;;9.80;6.80;;;;;;;19.52;50.47;98425.38;5096349;28;20214;-71
2021/04/01 09:04:11;;;;;;;9.00;6.90;;;;;;;19.57;49.40;98427.63;5096123;28;20225;-71
2021/04/01 09:06:39;;;;;;;12.60;7.43;;;;;;;19.59;48.19;98418.44;5096320;28;20276;-71
2021/04/01 09:09:11;;;;;;;12.33;7.57;;;;;;;19.46;47.89;98423.34;5094302;28;20230;-73
2021/04/01 09:11:44;;;;;;;8.73;7.00;;;;;;;19.30;48.52;98416.97;5095819;28;20272;-71
2021/04/01 09:14:22;;;;;;;11.23;7.10;;;;;;;19.20;47.24;98411.69;5096149;28;20245;-71
2021/04/01 09:16:59;;;;;;;10.67;7.57;;;;;;;19.05;48.68;98415.00;5095713;28;20724;-72
2021/04/01 09:19:29;;;;;;;9.30;7.33;;;;;;;18.90;48.17;98416.53;5095997;28;20214;-73
2021/04/01 09:21:57;;;;;;;9.30;7.33;;;;;;;18.72;48.37;98416.50;5095622;28;20206;-72
2021/04/01 09:24:28;;;;;;;17.13;7.63;;;;;;;18.76;49.33;98417.88;5095845;28;20207;-73
2021/04/01 09:26:55;;;;;;;10.20;7.37;;;;;;;18.72;48.27;98413.81;5095545;28;20551;-71
2021/04/01 09:29:22;;;;;;;11.87;7.03;;;;;;;18.75;48.75;98413.53;5095462;28;20608;-70
2021/04/01 09:31:54;;;;;;;8.07;5.20;;;;;;;19.05;46.63;98415.00;5094162;28;20214;-70
2021/04/01 09:34:22;;;;;;;8.83;4.63;;;;;;;19.02;47.05;98412.66;5095730;28;20593;-70
2021/04/01 09:36:48;;;;;;;6.57;4.60;;;;;;;19.03;45.92;98411.66;5093634;28;20207;-70
2021/04/01 09:39:25;;;;;;;8.50;4.50;;;;;;;19.14;44.94;98404.22;5095658;28;20242;-71
2021/04/01 09:41:57;;;;;;;7.53;4.33;;;;;;;19.15;44.71;98397.88;5095378;28;20705;-70
2021/04/01 09:44:25;;;;;;;8.83;4.20;;;;;;;19.29;44.53;98400.06;5095664;28;20252;-70
2021/04/01 09:46:57;;;;;;;9.10;4.23;;;;;;;19.43;43.69;98401.34;5095265;28;20260;-71
2021/04/01 09:49:28;;;;;;;9.63;4.63;;;;;;;19.56;42.80;98394.59;5095521;28;20284;-70
2021/04/01 09:51:55;;;;;;;7.63;4.50;;;;;;;19.53;42.11;98386.88;5095673;28;20207;-70
2021/04/01 09:54:21;;;;;;;7.67;4.30;;;;;;;19.69;42.65;98389.66;5095190;28;20297;-70
2021/04/01 09:56:55;;;;;;;10.50;5.03;;;;;;;19.96;41.82;98400.25;5095129;28;20203;-70
2021/04/01 09:59:24;;;;;;;5.70;3.60;;;;;;;20.10;40.73;98388.97;5095269;28;20264;-70
2021/04/01 10:02:03;;;;;;;6.30;4.00;;;;;;;20.15;41.47;98392.03;5093545;28;20249;-70
2021/04/01 10:04:34;;;;;;;6.13;3.63;;;;;;;20.40;41.14;98384.91;5094793;28;20210;-70
2021/04/01 10:07:13;;;;;;;5.50;3.83;;;;;;;20.44;40.79;98380.94;5094663;28;20579;-70
2021/04/01 10:09:48;;;;;;;9.60;3.63;;;;;;;20.53;40.54;98374.56;5094742;28;20711;-70
2021/04/01 10:12:16;;;;;;;6.73;3.57;;;;;;;20.53;40.89;98366.50;5094668;28;20206;-71
2021/04/01 10:14:49;;;;;;;4.70;3.50;;;;;;;20.57;41.21;98370.56;5094793;28;20239;-70
2021/04/01 10:17:16;;;;;;;7.57;3.47;;;;;;;20.78;40.64;98366.44;5094469;28;20221;-71
2021/04/01 10:19:47;;;;;;;5.17;3.80;;;;;;;20.81;40.65;98363.44;5094431;28;20206;-71
2021/04/01 10:22:20;;;;;;;6.47;3.87;;;;;;;21.03;40.53;98351.25;5094754;28;20203;-70
2021/04/01 10:24:47;;;;;;;4.87;3.30;;;;;;;21.06;41.14;98354.44;5094349;28;20211;-71
2021/04/01 10:27:22;;;;;;;5.47;3.43;;;;;;;21.13;41.00;98352.78;5092742;28;20215;-72
2021/04/01 10:29:58;;;;;;;6.47;3.30;;;;;;;21.19;39.82;98348.56;5094490;28;20233;-71
2021/04/01 10:32:35;;;;;;;3.30;2.90;;;;;;;21.32;40.33;98349.75;5094512;28;20244;-71
2021/04/01 10:35:06;;;;;;;4.37;3.23;;;;;;;21.37;40.29;98339.34;5094569;28;20221;-71
2021/04/01 10:37:33;;;;;;;5.63;2.80;;;;;;;21.52;39.79;98343.03;5094252;28;20211;-71
2021/04/01 10:40:00;;;;;;;7.23;3.30;;;;;;;21.63;39.31;98334.63;5094754;28;20249;-73
2021/04/01 10:42:28;;;;;;;3.87;2.97;;;;;;;21.70;39.50;98335.66;5093854;28;20215;-73
2021/04/01 10:44:58;;;;;;;5.17;3.00;;;;;;;21.78;39.22;98334.81;5094082;28;20263;-72
2021/04/01 10:47:38;;;;;;;7.13;3.53;;;;;;;21.81;39.11;98327.22;5094006;28;20697;-71
2021/04/01 10:50:05;;;;;;;5.10;2.93;;;;;;;22.01;38.16;98328.50;5094142;28;20264;-70
2021/04/01 10:52:33;;;;;;;5.40;2.57;;;;;;;21.99;38.26;98325.16;5094233;28;20206;-72
2021/04/01 10:55:00;;;;;;;5.30;2.80;;;;;;;21.90;38.48;98323.53;5092470;28;20214;-71
2021/04/01 10:57:27;;;;;;;3.63;3.07;;;;;;;21.76;38.88;98321.50;5094040;28;20206;-72
2021/04/01 10:59:54;;;;;;;4.73;2.50;;;;;;;21.93;38.26;98317.78;5094036;28;20211;-73
2021/04/01 11:02:23;;;;;;;7.57;2.73;;;;;;;21.95;38.07;98310.34;5093561;28;20207;-73
2021/04/01 11:04:54;;;;;;;4.33;2.83;;;;;;;21.95;38.14;98315.75;5093570;28;20676;-70
2021/04/01 11:07:21;;;;;;;6.60;3.00;;;;;;;21.96;38.02;98306.69;5093708;28;20268;-73
2021/04/01 11:09:49;;;;;;;2.90;2.57;;;;;;;21.99;37.98;98305.47;5093681;28;20230;-73
2021/04/01 11:12:18;;;;;;;4.73;2.77;;;;;;;21.96;37.55;98309.38;5093554;28;20813;-73
2021/04/01 11:14:48;;;;;;;5.40;3.00;;;;;;;21.90;37.95;98295.75;5093518;28;20317;-72
2021/04/01 11:17:16;;;;;;;3.33;2.50;;;;;;;21.89;37.67;98292.22;5093788;28;20249;-72
2021/04/01 11:19:45;;;;;;;6.87;3.60;;;;;;;22.02;38.13;98297.91;5092129;28;20210;-72
2021/04/01 11:22:12;;;;;;;3.77;2.57;;;;;;;22.18;37.82;98291.63;5093494;28;20203;-71
2021/04/01 11:24:39;;;;;;;4.97;2.93;;;;;;;22.23;37.88;98287.38;5093576;28;20233;-71
2021/04/01 11:27:11;;;;;;;7.77;2.73;;;;;;;22.33;37.40;98290.72;5093656;28;20207;-71
2021/04/01 11:29:38;;;;;;;5.53;3.07;;;;;;;22.35;37.25;98277.06;5093545;28;20769;-72
2021/04/01 11:32:15;;;;;;;4.23;2.70;;;;;;;22.40;37.14;98280.06;5093507;28;20580;-72
2021/04/01 11:34:43;;;;;;;4.57;2.83;;;;;;;22.59;36.55;98275.13;5093597;28;20206;-73
2021/04/01 11:37:09;;;;;;;6.60;2.60;;;;;;;22.68;36.92;98278.59;5093108;28;20213;-72
2021/04/01 11:39:38;;;;;;;5.93;2.77;;;;;;;22.77;37.42;98272.97;5093023;28;20217;-72
2021/04/01 11:42:08;;;;;;;4.70;2.33;;;;;;;22.88;36.68;98279.81;5093237;28;20211;-72
2021/04/01 11:44:36;;;;;;;6.70;2.63;;;;;;;23.14;35.32;98269.50;5093220;28;20214;-72
2021/04/01 11:47:12;;;;;;;4.13;2.83;;;;;;;23.03;35.60;98268.06;5091508;28;20202;-73
2021/04/01 11:49:38;;;;;;;3.60;2.57;;;;;;;23.23;35.42;98263.06;5093231;28;20238;-71
2021/04/01 11:52:08;;;;;;;6.13;3.40;;;;;;;23.24;35.75;98265.59;5093129;28;20217;-72
2021/04/01 11:54:34;;;;;;;5.90;2.57;;;;;;;23.05;36.02;98259.81;5092736;28;20209;-72
2021/04/01 11:57:00;;;;;;;4.40;2.70;;;;;;;22.95;35.42;98253.81;5093304;28;20209;-72
2021/04/01 11:59:30;;;;;;;4.30;2.90;;;;;;;22.89;36.27;98259.91;5093160;28;20211;-72
2021/04/01 12:02:01;;;;;;;7.37;2.67;;;;;;;22.96;35.85;98258.19;5092825;28;20221;-72
2021/04/01 12:04:30;;;;;;;5.23;2.80;;;;;;;22.94;36.24;98253.00;5092875;28;20217;-72
2021/04/01 12:06:57;;;;;;;3.87;2.83;;;;;;;23.23;35.61;98253.09;5093140;28;20657;-72
2021/04/01 12:09:24;;;;;;;5.37;2.80;;;;;;;23.26;35.65;98255.44;5093144;28;20230;-72
2021/04/01 12:11:50;;;;;;;3.50;2.43;;;;;;;23.23;34.90;98255.78;5091488;28;20203;-72
2021/04/01 12:14:17;;;;;;;3.30;2.23;;;;;;;23.35;33.16;98246.25;5093040;28;20279;-72
2021/04/01 12:16:44;;;;;;;8.43;2.93;;;;;;;23.53;33.46;98249.44;5093079;28;20210;-71
2021/04/01 12:19:11;;;;;;;4.90;2.90;;;;;;;23.53;33.25;98248.63;5092879;28;20234;-72
2021/04/01 12:21:38;;;;;;;4.73;2.93;;;;;;;23.46;34.87;98243.09;5092674;28;20622;-72
2021/04/01 12:24:07;;;;;;;7.03;2.80;;;;;;;23.43;34.50;98237.25;5092683;28;20581;-72
2021/04/01 12:26:42;;;;;;;3.03;2.80;;;;;;;23.40;34.44;98243.84;5092933;28;20210;-72